createdAt,value
2022-12-19T00:01:35.512Z,94.13
2022-12-19T00:04:07.846Z,100.70
2022-12-19T00:06:36.583Z,98.75
2022-12-19T00:09:04.631Z,99.60
2022-12-19T00:11:32.153Z,101.13
2022-12-19T00:13:59.576Z,98.43
2022-12-19T00:16:29.353Z,100.63
2022-12-19T00:19:00.138Z,99.65
2022-12-19T00:21:29.435Z,104.68
2022-12-19T00:23:56.278Z,104.38
2022-12-19T00:26:26.159Z,99.43
2022-12-19T00:28:55.319Z,112.20
2022-12-19T00:31:25.616Z,99.93
2022-12-19T00:33:52.727Z,99.68
2022-12-19T00:36:23.038Z,108.63
2022-12-19T00:38:51.502Z,103.97
2022-12-19T00:41:21.475Z,105.45
2022-12-19T00:43:56.848Z,103.25
2022-12-19T00:46:23.894Z,107.50
2022-12-19T00:48:51.126Z,107.18
2022-12-19T00:51:21.239Z,101.55
2022-12-19T00:53:50.301Z,99.20
2022-12-19T00:56:20.391Z,95.85
2022-12-19T00:58:47.763Z,90.63
2022-12-19T01:01:17.556Z,92.22
2022-12-19T01:04:04.360Z,99.95
2022-12-19T01:06:31.599Z,97.45
2022-12-19T01:08:58.834Z,94.07
2022-12-19T01:11:44.334Z,84.57
2022-12-19T01:14:16.064Z,96.55
2022-12-19T01:16:45.950Z,85.97
2022-12-19T01:19:12.758Z,92.57
2022-12-19T01:21:39.604Z,92.05
2022-12-19T01:24:06.543Z,92.45
2022-12-19T01:26:33.277Z,88.28
2022-12-19T01:29:00.074Z,93.82
2022-12-19T01:31:26.869Z,84.72
2022-12-19T01:33:53.797Z,86.72
2022-12-19T01:36:21.429Z,87.05
2022-12-19T01:38:48.147Z,92.47
2022-12-19T01:41:15.006Z,90.63
2022-12-19T01:44:02.555Z,85.80
2022-12-19T01:46:38.454Z,91.45
2022-12-19T01:49:10.630Z,88.80
2022-12-19T01:51:45.646Z,84.45
2022-12-19T01:54:19.674Z,91.35
2022-12-19T01:56:50.550Z,85.68
2022-12-19T01:59:21.842Z,87.65
2022-12-19T02:01:52.060Z,90.55
2022-12-19T02:04:20.354Z,91.93
2022-12-19T02:06:48.373Z,89.07
2022-12-19T02:09:15.894Z,87.93
2022-12-19T02:11:42.842Z,86.63
2022-12-19T02:14:09.706Z,89.68
2022-12-19T02:16:55.096Z,94.00
2022-12-19T02:19:21.846Z,90.57
2022-12-19T02:22:06.799Z,88.70
2022-12-19T02:25:28.226Z,88.18
2022-12-19T02:28:21.383Z,89.18
2022-12-19T02:31:18.030Z,88.15
2022-12-19T02:34:11.112Z,90.13
2022-12-19T02:37:07.839Z,94.55
2022-12-19T02:39:43.855Z,96.60
2022-12-19T02:42:14.295Z,94.20
2022-12-19T02:44:50.784Z,94.93
2022-12-19T02:47:19.117Z,93.00
2022-12-19T02:49:45.920Z,93.53
2022-12-19T02:52:21.638Z,86.75
2022-12-19T02:54:58.977Z,89.72
2022-12-19T02:57:33.993Z,92.47
2022-12-19T03:00:10.456Z,101.75
2022-12-19T03:03:14.142Z,95.47
2022-12-19T03:05:45.494Z,98.55
2022-12-19T03:08:46.856Z,101.70
2022-12-19T03:11:15.460Z,98.68
2022-12-19T03:13:56.869Z,99.40
2022-12-19T03:16:24.876Z,98.25
2022-12-19T03:18:55.226Z,102.72
2022-12-19T03:21:29.204Z,104.40
2022-12-19T03:23:57.344Z,108.45
2022-12-19T03:26:28.836Z,103.97
2022-12-19T03:28:58.422Z,106.40
2022-12-19T03:31:29.420Z,108.90
2022-12-19T03:34:00.934Z,108.45
2022-12-19T03:36:33.313Z,98.55
2022-12-19T03:39:03.220Z,100.55
2022-12-19T03:41:50.017Z,106.30
2022-12-19T03:44:19.126Z,118.43
2022-12-19T03:46:54.571Z,108.82
2022-12-19T03:49:21.361Z,119.90
2022-12-19T03:51:59.508Z,109.07
2022-12-19T03:54:32.279Z,114.35
2022-12-19T03:57:28.243Z,109.13
2022-12-19T04:00:21.493Z,113.10
2022-12-19T04:05:23.052Z,107.93
2022-12-19T04:07:52.355Z,108.20
2022-12-19T04:10:23.758Z,109.28
2022-12-19T04:13:03.146Z,110.43
2022-12-19T04:15:54.326Z,110.85
2022-12-19T04:18:22.032Z,108.68
2022-12-19T04:20:58.045Z,105.00
2022-12-19T04:23:34.023Z,113.00
2022-12-19T04:26:04.287Z,103.15
2022-12-19T04:28:38.668Z,99.20
2022-12-19T04:31:06.872Z,113.13
2022-12-19T04:33:33.629Z,113.20
2022-12-19T04:36:00.469Z,108.55
2022-12-19T04:38:27.352Z,121.97
2022-12-19T04:40:54.086Z,115.28
2022-12-19T04:43:20.790Z,108.28
2022-12-19T04:45:49.670Z,119.22
2022-12-19T04:48:19.463Z,123.70
2022-12-19T04:50:46.215Z,120.72
2022-12-19T04:53:12.918Z,122.63
2022-12-19T04:55:41.071Z,118.82
2022-12-19T04:58:08.031Z,115.18
2022-12-19T05:00:34.777Z,126.88
2022-12-19T05:03:01.703Z,124.03
2022-12-19T05:05:28.560Z,117.25
2022-12-19T05:07:58.360Z,118.57
2022-12-19T05:10:25.238Z,120.50
2022-12-19T05:12:53.963Z,123.38
2022-12-19T05:15:20.763Z,123.68
2022-12-19T05:17:47.531Z,116.57
2022-12-19T05:20:14.528Z,110.95
2022-12-19T05:22:41.291Z,122.93
2022-12-19T05:25:08.571Z,113.13
2022-12-19T05:27:35.354Z,115.03
2022-12-19T05:30:02.244Z,121.13
2022-12-19T05:32:32.319Z,115.57
2022-12-19T05:34:59.086Z,119.78
2022-12-19T05:37:25.916Z,110.25
2022-12-19T05:39:52.661Z,112.35
2022-12-19T05:42:19.445Z,118.05
2022-12-19T05:44:46.157Z,120.40
2022-12-19T05:47:12.909Z,112.88
2022-12-19T05:49:42.438Z,121.82
2022-12-19T05:52:11.967Z,105.38
2022-12-19T05:54:38.835Z,112.40
2022-12-19T05:57:05.672Z,108.03
2022-12-19T05:59:32.431Z,122.75
2022-12-19T06:01:59.296Z,113.15
2022-12-19T06:04:26.467Z,127.68
2022-12-19T06:06:53.704Z,108.00
2022-12-19T06:09:20.467Z,116.93
2022-12-19T06:11:47.629Z,116.35
2022-12-19T06:14:14.432Z,99.65
2022-12-19T06:16:41.345Z,104.45
2022-12-19T06:19:08.204Z,108.28
2022-12-19T06:21:35.003Z,110.00
2022-12-19T06:24:01.806Z,109.28
2022-12-19T06:26:28.662Z,106.60
2022-12-19T06:28:55.984Z,106.38
2022-12-19T06:31:25.029Z,104.95
2022-12-19T06:33:52.128Z,113.97
2022-12-19T06:36:30.105Z,108.85
2022-12-19T06:38:58.117Z,111.25
2022-12-19T06:41:44.057Z,114.53
2022-12-19T06:44:12.908Z,103.75
2022-12-19T06:46:40.854Z,107.32
2022-12-19T06:49:08.410Z,109.75
2022-12-19T06:51:35.207Z,104.72
2022-12-19T06:54:02.027Z,108.20
2022-12-19T06:56:28.974Z,105.75
2022-12-19T06:58:56.008Z,108.97
2022-12-19T07:01:52.444Z,109.57
2022-12-19T07:04:29.595Z,107.78
2022-12-19T07:06:56.989Z,103.65
2022-12-19T07:09:23.809Z,109.78
2022-12-19T07:11:59.770Z,115.18
2022-12-19T07:14:26.565Z,101.57
2022-12-19T07:16:54.735Z,108.50
2022-12-19T07:19:22.908Z,103.25
2022-12-19T07:21:49.972Z,109.00
2022-12-19T07:24:16.885Z,111.82
2022-12-19T07:26:44.956Z,97.47
2022-12-19T07:29:12.485Z,107.03
2022-12-19T07:31:39.260Z,106.15
2022-12-19T07:34:06.162Z,124.47
2022-12-19T07:36:33.168Z,110.53
2022-12-19T07:39:00.880Z,110.13
2022-12-19T07:41:27.675Z,111.15
2022-12-19T07:43:54.486Z,103.68
2022-12-19T07:46:22.038Z,113.30
2022-12-19T07:48:48.924Z,115.53
2022-12-19T07:51:15.869Z,116.75
2022-12-19T07:53:42.642Z,115.28
2022-12-19T07:56:09.506Z,113.78
2022-12-19T07:58:36.550Z,108.28
2022-12-19T08:01:03.437Z,110.68
2022-12-19T08:03:33.732Z,115.68
2022-12-19T08:06:01.629Z,105.30
2022-12-19T08:08:30.396Z,118.22
2022-12-19T08:11:09.987Z,112.75
2022-12-19T08:13:40.849Z,110.53
2022-12-19T08:16:10.636Z,111.78
2022-12-19T08:18:37.605Z,116.30
2022-12-19T08:21:04.509Z,110.65
2022-12-19T08:23:31.389Z,108.80
2022-12-19T08:26:02.384Z,108.80
2022-12-19T08:28:29.518Z,112.60
2022-12-19T08:30:56.397Z,119.43
2022-12-19T08:33:23.590Z,108.45
2022-12-19T08:35:50.479Z,119.40
2022-12-19T08:38:17.355Z,114.38
2022-12-19T08:40:47.551Z,118.47
2022-12-19T08:43:14.488Z,124.68
2022-12-19T08:45:41.415Z,105.38
2022-12-19T08:48:08.207Z,102.75
2022-12-19T08:50:34.991Z,107.15
2022-12-19T08:53:02.008Z,111.53
2022-12-19T08:55:29.397Z,114.00
2022-12-19T08:57:57.929Z,111.55
2022-12-19T09:00:24.966Z,112.43
2022-12-19T09:02:52.678Z,106.50
2022-12-19T09:06:01.553Z,104.68
2022-12-19T09:08:06.923Z,111.40
2022-12-19T09:10:36.832Z,117.50
2022-12-19T09:13:04.992Z,120.63
2022-12-19T09:15:31.948Z,101.35
2022-12-19T09:17:59.095Z,107.03
2022-12-19T09:20:25.975Z,108.68
2022-12-19T09:22:53.232Z,106.97
2022-12-19T09:25:20.095Z,110.32
2022-12-19T09:28:25.295Z,103.80
2022-12-19T09:30:33.958Z,108.00
2022-12-19T09:33:02.327Z,103.88
2022-12-19T09:35:30.679Z,115.22
2022-12-19T09:38:00.400Z,111.80
2022-12-19T09:40:35.426Z,104.95
2022-12-19T09:43:22.656Z,99.95
2022-12-19T09:46:04.027Z,101.18
2022-12-19T09:48:30.937Z,100.80
2022-12-19T09:51:09.631Z,112.82
2022-12-19T09:54:09.724Z,105.55
2022-12-19T09:56:46.545Z,101.97
2022-12-19T09:59:33.180Z,95.63
2022-12-19T10:02:23.854Z,103.10
2022-12-19T10:05:03.795Z,92.05
2022-12-19T10:08:07.261Z,103.93
2022-12-19T10:12:38.457Z,98.82
2022-12-19T10:14:09.002Z,99.97
2022-12-19T10:17:15.884Z,105.28
2022-12-19T10:19:43.512Z,92.85
2022-12-19T10:22:43.752Z,88.15
2022-12-19T10:25:36.378Z,86.07
2022-12-19T10:28:15.216Z,90.50
2022-12-19T10:31:12.475Z,96.43
2022-12-19T10:33:48.414Z,94.45
2022-12-19T10:36:15.757Z,85.20
2022-12-19T10:38:58.336Z,88.40
2022-12-19T10:41:31.846Z,84.45
2022-12-19T10:44:09.746Z,79.53
2022-12-19T10:46:46.952Z,89.57
2022-12-19T10:49:23.029Z,83.00
2022-12-19T10:52:11.204Z,83.00
2022-12-19T10:54:38.101Z,78.85
2022-12-19T10:57:24.251Z,83.53
2022-12-19T10:59:59.950Z,79.20
2022-12-19T11:02:44.700Z,77.80
2022-12-19T11:05:25.557Z,83.13
2022-12-19T11:08:15.659Z,76.82
2022-12-19T11:12:50.573Z,79.68
2022-12-19T11:18:17.662Z,79.78
2022-12-19T11:23:49.535Z,72.13
2022-12-19T11:29:25.302Z,72.35
2022-12-19T11:29:34.919Z,74.88
2022-12-19T11:30:09.923Z,71.35
2022-12-19T11:30:46.768Z,67.18
2022-12-19T11:34:19.455Z,76.68
2022-12-19T11:36:49.268Z,69.03
2022-12-19T11:39:41.847Z,73.78
2022-12-19T11:42:22.245Z,74.40
2022-12-19T11:45:06.326Z,77.78
2022-12-19T11:47:44.052Z,70.32
2022-12-19T11:50:22.088Z,72.32
2022-12-19T11:53:37.203Z,69.88
2022-12-19T11:56:08.118Z,64.65
2022-12-19T11:58:50.804Z,64.00
2022-12-19T12:01:31.888Z,57.47
2022-12-19T12:04:20.208Z,59.72
2022-12-19T12:06:54.759Z,60.67
2022-12-19T12:14:07.973Z,58.10
2022-12-19T12:22:27.341Z,57.75
2022-12-19T12:29:36.606Z,54.40
2022-12-19T12:31:15.620Z,52.80
2022-12-19T12:31:26.202Z,51.88
2022-12-19T12:32:05.782Z,55.63
2022-12-19T12:32:06.756Z,56.05
2022-12-19T12:35:46.744Z,51.05
2022-12-19T12:38:26.619Z,45.55
2022-12-19T12:41:16.284Z,51.03
2022-12-19T12:44:12.279Z,50.10
2022-12-19T12:47:21.464Z,48.00
2022-12-19T12:50:00.586Z,46.38
2022-12-19T12:52:38.549Z,38.55
2022-12-19T12:55:14.960Z,41.67
2022-12-19T12:57:41.859Z,41.83
2022-12-19T13:00:18.218Z,42.10
2022-12-19T13:02:50.875Z,38.65
2022-12-19T13:05:30.281Z,41.17
2022-12-19T13:07:57.067Z,40.63
2022-12-19T13:10:29.683Z,41.63
2022-12-19T13:13:17.424Z,38.08
2022-12-19T13:15:46.981Z,39.60
2022-12-19T13:18:34.951Z,42.08
2022-12-19T13:21:05.866Z,43.33
2022-12-19T13:23:34.787Z,37.50
2022-12-19T13:26:02.160Z,33.97
2022-12-19T13:28:29.080Z,36.67
2022-12-19T13:31:20.426Z,32.78
2022-12-19T13:33:55.944Z,30.73
2022-12-19T13:39:54.911Z,31.08
2022-12-19T13:40:00.874Z,30.67
2022-12-19T13:43:43.577Z,31.17
2022-12-19T13:46:44.420Z,26.55
2022-12-19T13:52:05.257Z,29.85
2022-12-19T13:54:37.608Z,32.63
2022-12-19T13:57:30.023Z,26.20
2022-12-19T14:00:09.004Z,32.85
2022-12-19T14:02:45.938Z,31.25
2022-12-19T14:05:32.234Z,25.05
2022-12-19T14:08:23.096Z,27.67
2022-12-19T14:11:39.675Z,33.10
2022-12-19T14:14:16.138Z,30.80
2022-12-19T14:16:46.980Z,33.38
2022-12-19T14:19:27.948Z,28.60
2022-12-19T14:22:10.741Z,31.80
2022-12-19T14:24:42.135Z,30.33
2022-12-19T14:28:22.352Z,32.92
2022-12-19T14:30:29.270Z,30.38
2022-12-19T14:33:43.625Z,29.40
2022-12-19T14:36:09.840Z,31.27
2022-12-19T14:39:23.551Z,28.88
2022-12-19T14:42:02.283Z,30.73
2022-12-19T14:52:11.609Z,29.35
2022-12-19T14:52:51.556Z,29.13
2022-12-19T14:54:01.753Z,27.25
2022-12-19T14:54:40.478Z,29.38
2022-12-19T14:56:46.669Z,29.40
2022-12-19T14:59:47.911Z,30.65
2022-12-19T15:02:32.655Z,34.08
2022-12-19T15:05:07.523Z,29.60
2022-12-19T15:07:34.930Z,29.08
2022-12-19T15:11:05.666Z,37.10
2022-12-19T15:14:51.086Z,29.30
2022-12-19T15:16:26.727Z,34.03
2022-12-19T15:19:01.688Z,29.67
2022-12-19T15:21:30.219Z,31.17
2022-12-19T15:23:57.276Z,32.33
2022-12-19T15:26:27.812Z,28.83
2022-12-19T15:28:56.938Z,29.42
2022-12-19T15:31:39.170Z,33.08
2022-12-19T15:34:40.039Z,27.77
2022-12-19T15:37:14.053Z,30.90
2022-12-19T15:39:41.775Z,31.83
2022-12-19T15:42:27.930Z,31.55
2022-12-19T15:44:57.980Z,23.73
2022-12-19T15:47:34.197Z,29.52
2022-12-19T15:50:03.970Z,28.98
2022-12-19T15:52:30.874Z,30.45
2022-12-19T15:54:57.801Z,28.38
2022-12-19T15:57:47.962Z,32.88
2022-12-19T16:00:23.667Z,33.92
2022-12-19T16:05:39.357Z,30.92
2022-12-19T16:08:20.850Z,27.98
2022-12-19T16:10:56.039Z,31.38
2022-12-19T16:13:35.456Z,31.17
2022-12-19T16:16:09.213Z,33.20
2022-12-19T16:18:42.759Z,32.05
2022-12-19T16:21:27.461Z,27.38
2022-12-19T16:23:58.408Z,35.38
2022-12-19T16:26:33.209Z,30.25
2022-12-19T16:29:00.805Z,30.33
2022-12-19T16:31:28.329Z,30.17
2022-12-19T16:33:55.840Z,32.83
2022-12-19T16:36:22.776Z,28.40
2022-12-19T16:38:50.057Z,26.67
2022-12-19T16:41:23.899Z,26.63
2022-12-19T16:43:51.479Z,27.25
2022-12-19T16:46:21.574Z,26.23
2022-12-19T16:48:54.971Z,29.67
2022-12-19T16:51:24.091Z,29.25
2022-12-19T16:53:52.996Z,27.25
2022-12-19T16:56:43.215Z,34.88
2022-12-19T16:59:22.676Z,32.65
2022-12-19T17:01:49.704Z,31.85
2022-12-19T17:04:22.225Z,34.42
2022-12-19T17:06:52.874Z,30.45
2022-12-19T17:09:24.031Z,28.27
2022-12-19T17:11:54.058Z,35.42
2022-12-19T17:14:31.635Z,33.95
2022-12-19T17:16:59.525Z,31.85
2022-12-19T17:19:41.591Z,31.65
2022-12-19T17:22:12.931Z,32.65
2022-12-19T17:24:39.756Z,28.98
2022-12-19T17:27:06.547Z,30.73
2022-12-19T17:29:33.386Z,35.60
2022-12-19T17:32:00.422Z,33.25
2022-12-19T17:34:33.864Z,31.63
2022-12-19T17:37:03.177Z,29.23
2022-12-19T17:39:31.681Z,30.33
2022-12-19T17:42:02.289Z,24.48
2022-12-19T17:44:29.037Z,25.70
2022-12-19T17:46:55.856Z,29.83
2022-12-19T17:49:31.216Z,25.60
2022-12-19T17:51:59.655Z,27.38
2022-12-19T17:54:27.264Z,27.65
2022-12-19T17:56:55.578Z,23.65
2022-12-19T17:59:22.375Z,29.25
2022-12-19T18:01:49.658Z,28.35
2022-12-19T18:04:21.514Z,27.45
2022-12-19T18:06:49.318Z,26.85
2022-12-19T18:09:22.035Z,25.75
2022-12-19T18:11:50.683Z,27.00
2022-12-19T18:14:18.300Z,28.23
2022-12-19T18:16:46.153Z,28.00
2022-12-19T18:19:23.401Z,23.20
2022-12-19T18:21:50.462Z,20.00
2022-12-19T18:24:17.670Z,24.98
2022-12-19T18:26:45.332Z,23.08
2022-12-19T18:29:12.532Z,18.83
2022-12-19T18:31:43.625Z,21.98
2022-12-19T18:34:22.017Z,17.80
2022-12-19T18:36:49.095Z,20.35
2022-12-19T18:39:24.612Z,19.00
2022-12-19T18:41:52.904Z,20.67
2022-12-19T18:44:20.343Z,16.17
2022-12-19T18:46:49.817Z,18.08
2022-12-19T18:49:17.178Z,16.83
2022-12-19T18:51:47.703Z,17.38
2022-12-19T18:54:17.313Z,20.45
2022-12-19T18:56:44.906Z,16.55
2022-12-19T18:59:11.939Z,20.52
2022-12-19T19:01:46.450Z,21.42
2022-12-19T19:04:17.928Z,17.70
2022-12-19T19:06:50.894Z,18.15
2022-12-19T19:09:19.569Z,14.60
2022-12-19T19:11:46.368Z,18.73
2022-12-19T19:14:13.293Z,16.23
2022-12-19T19:16:40.418Z,16.20
2022-12-19T19:19:10.402Z,18.05
2022-12-19T19:21:38.167Z,17.52
2022-12-19T19:24:14.897Z,17.30
2022-12-19T19:26:41.686Z,17.70
2022-12-19T19:29:09.685Z,19.67
2022-12-19T19:31:40.787Z,17.70
2022-12-19T19:34:35.241Z,19.95
2022-12-19T19:37:03.997Z,20.42
2022-12-19T19:39:33.676Z,18.42
2022-12-19T19:42:01.119Z,18.20
2022-12-19T19:44:28.365Z,18.20
2022-12-19T19:46:55.337Z,22.00
2022-12-19T19:49:22.867Z,23.10
2022-12-19T19:51:50.016Z,21.17
2022-12-19T19:54:16.833Z,22.75
2022-12-19T19:56:43.755Z,13.80
2022-12-19T19:59:10.879Z,8.13
2022-12-19T20:01:37.858Z,11.57
2022-12-19T20:04:05.030Z,12.25
2022-12-19T20:06:32.096Z,9.05
2022-12-19T20:08:58.864Z,7.78
2022-12-19T20:11:25.770Z,8.50
2022-12-19T20:13:52.571Z,8.15
2022-12-19T20:16:19.713Z,6.63
2022-12-19T20:18:49.389Z,5.10
2022-12-19T20:21:17.275Z,7.07
2022-12-19T20:23:44.411Z,5.28
2022-12-19T20:26:13.621Z,5.40
2022-12-19T20:28:47.910Z,7.20
2022-12-19T20:31:20.049Z,5.18
2022-12-19T20:33:48.631Z,4.57
2022-12-19T20:36:16.772Z,6.22
2022-12-19T20:38:43.683Z,7.93
2022-12-19T20:41:10.711Z,5.93
2022-12-19T20:43:38.625Z,4.35
2022-12-19T20:46:09.460Z,4.75
2022-12-19T20:48:37.135Z,10.93
2022-12-19T20:51:04.856Z,7.88
2022-12-19T20:53:36.315Z,7.50
2022-12-19T20:56:04.890Z,5.80
2022-12-19T20:58:34.770Z,4.85
2022-12-19T21:01:11.928Z,7.22
2022-12-19T21:03:39.702Z,6.68
2022-12-19T21:06:08.591Z,6.78
2022-12-19T21:08:35.624Z,7.15
2022-12-19T21:11:03.811Z,4.82
2022-12-19T21:13:30.664Z,5.55
2022-12-19T21:15:59.743Z,5.35
2022-12-19T21:18:26.998Z,4.45
2022-12-19T21:20:54.570Z,4.28
2022-12-19T21:23:21.788Z,7.38
2022-12-19T21:25:48.561Z,6.05
2022-12-19T21:28:15.488Z,6.28
2022-12-19T21:30:42.381Z,4.30
2022-12-19T21:33:09.334Z,7.40
2022-12-19T21:35:36.273Z,5.68
2022-12-19T21:38:03.077Z,4.25
2022-12-19T21:40:29.927Z,8.35
2022-12-19T21:42:56.681Z,5.60
2022-12-19T21:45:23.453Z,5.07
2022-12-19T21:47:50.626Z,5.45
2022-12-19T21:50:17.496Z,4.10
2022-12-19T21:52:44.550Z,5.88
2022-12-19T21:55:11.363Z,4.85
2022-12-19T21:57:39.998Z,8.05
2022-12-19T22:00:09.352Z,6.68
2022-12-19T22:02:36.343Z,6.35
2022-12-19T22:05:04.195Z,6.43
2022-12-19T22:07:31.014Z,4.63
2022-12-19T22:09:57.876Z,4.50
2022-12-19T22:12:24.771Z,7.78
2022-12-19T22:14:52.535Z,5.97
2022-12-19T22:17:19.336Z,7.00
2022-12-19T22:19:46.164Z,6.13
2022-12-19T22:22:12.982Z,7.07
2022-12-19T22:24:39.751Z,5.32
2022-12-19T22:27:06.687Z,5.13
2022-12-19T22:29:36.565Z,5.18
2022-12-19T22:32:04.517Z,6.75
2022-12-19T22:34:31.349Z,6.45
2022-12-19T22:36:58.161Z,4.68
2022-12-19T22:39:25.105Z,6.90
2022-12-19T22:41:52.105Z,7.82
2022-12-19T22:44:21.702Z,4.10
2022-12-19T22:46:49.173Z,4.57
2022-12-19T22:49:16.472Z,3.75
2022-12-19T22:51:43.668Z,4.88
2022-12-19T22:54:11.706Z,5.72
2022-12-19T22:56:39.538Z,4.72
2022-12-19T22:59:08.496Z,6.90
2022-12-19T23:01:41.240Z,6.25
2022-12-19T23:04:10.701Z,3.90
2022-12-19T23:06:38.318Z,5.90
2022-12-19T23:09:09.724Z,6.20
2022-12-19T23:11:39.047Z,5.88
2022-12-19T23:14:08.229Z,4.82
2022-12-19T23:16:35.300Z,2.67
2022-12-19T23:19:02.131Z,2.45
2022-12-19T23:21:30.372Z,2.30
2022-12-19T23:23:57.259Z,5.55
2022-12-19T23:26:29.612Z,4.80
2022-12-19T23:28:59.638Z,5.40
2022-12-19T23:31:27.331Z,4.90
2022-12-19T23:33:55.063Z,5.45
2022-12-19T23:36:38.517Z,4.43
2022-12-19T23:39:11.108Z,5.50
2022-12-19T23:41:38.195Z,5.63
2022-12-19T23:44:05.269Z,4.13
2022-12-19T23:46:32.129Z,3.33
2022-12-19T23:48:58.933Z,5.40
2022-12-19T23:51:27.529Z,3.80
2022-12-19T23:53:55.693Z,6.85
2022-12-19T23:56:27.629Z,5.15
2022-12-19T23:58:55.096Z,6.88
